sensor_id;sensor_type;location;lat;lon;timestamp;temperature;humidity
27707;DHT22;36332;51.384;0.040;2022-09-16T00:01:12;14.70;99.90
27707;DHT22;36332;51.384;0.040;2022-09-16T00:03:41;14.70;99.90
27707;DHT22;36332;51.384;0.040;2022-09-16T00:06:20;14.70;99.90
27707;DHT22;36332;51.384;0.040;2022-09-16T00:08:48;14.60;99.90
27707;DHT22;36332;51.384;0.040;2022-09-16T00:11:17;14.60;99.90
27707;DHT22;36332;51.384;0.040;2022-09-16T00:13:45;14.60;99.90
27707;DHT22;36332;51.384;0.040;2022-09-16T00:16:22;14.20;99.90
27707;DHT22;36332;51.384;0.040;2022-09-16T00:18:58;14.60;99.90
27707;DHT22;36332;51.384;0.040;2022-09-16T00:21:27;14.60;99.90
27707;DHT22;36332;51.384;0.040;2022-09-16T00:23:55;14.50;99.90
27707;DHT22;36332;51.384;0.040;2022-09-16T00:26:23;14.50;99.90
27707;DHT22;36332;51.384;0.040;2022-09-16T00:28:52;15.00;99.90
27707;DHT22;36332;51.384;0.040;2022-09-16T00:31:19;14.50;99.90
27707;DHT22;36332;51.384;0.040;2022-09-16T00:33:47;14.60;99.90
27707;DHT22;36332;51.384;0.040;2022-09-16T00:36:17;14.70;99.90
27707;DHT22;36332;51.384;0.040;2022-09-16T00:38:44;14.60;99.90
27707;DHT22;36332;51.384;0.040;2022-09-16T00:41:17;14.80;99.90
27707;DHT22;36332;51.384;0.040;2022-09-16T00:46:41;14.60;99.90
27707;DHT22;36332;51.384;0.040;2022-09-16T00:49:21;14.60;99.90
27707;DHT22;36332;51.384;0.040;2022-09-16T00:51:54;14.60;99.90
27707;DHT22;36332;51.384;0.040;2022-09-16T00:54:23;14.60;99.90
27707;DHT22;36332;51.384;0.040;2022-09-16T00:56:54;14.60;99.90
27707;DHT22;36332;51.384;0.040;2022-09-16T00:59:26;14.50;99.90
27707;DHT22;36332;51.384;0.040;2022-09-16T01:01:57;14.20;99.90
27707;DHT22;36332;51.384;0.040;2022-09-16T01:04:33;14.30;99.90
27707;DHT22;36332;51.384;0.040;2022-09-16T01:07:01;14.70;99.90
27707;DHT22;36332;51.384;0.040;2022-09-16T01:09:30;14.40;99.90
27707;DHT22;36332;51.384;0.040;2022-09-16T01:11:58;14.50;99.90
27707;DHT22;36332;51.384;0.040;2022-09-16T01:14:26;14.50;99.90
27707;DHT22;36332;51.384;0.040;2022-09-16T01:17:36;14.80;99.90
27707;DHT22;36332;51.384;0.040;2022-09-16T01:20:34;14.40;99.90
27707;DHT22;36332;51.384;0.040;2022-09-16T01:31:24;14.50;99.90
27707;DHT22;36332;51.384;0.040;2022-09-16T01:34:04;14.40;99.90
27707;DHT22;36332;51.384;0.040;2022-09-16T01:40:01;14.40;99.90
27707;DHT22;36332;51.384;0.040;2022-09-16T01:42:54;14.40;99.90
27707;DHT22;36332;51.384;0.040;2022-09-16T01:51:13;14.60;99.90
27707;DHT22;36332;51.384;0.040;2022-09-16T01:53:43;14.40;99.90
27707;DHT22;36332;51.384;0.040;2022-09-16T01:56:22;14.30;99.90
27707;DHT22;36332;51.384;0.040;2022-09-16T02:02:23;14.30;99.90
27707;DHT22;36332;51.384;0.040;2022-09-16T02:04:55;14.00;99.90
27707;DHT22;36332;51.384;0.040;2022-09-16T02:07:29;14.20;99.90
27707;DHT22;36332;51.384;0.040;2022-09-16T02:12:52;14.00;99.90
27707;DHT22;36332;51.384;0.040;2022-09-16T02:15:22;14.40;99.90
27707;DHT22;36332;51.384;0.040;2022-09-16T02:17:56;13.80;99.90
27707;DHT22;36332;51.384;0.040;2022-09-16T02:20:28;14.00;99.90
27707;DHT22;36332;51.384;0.040;2022-09-16T02:23:04;13.10;99.90
27707;DHT22;36332;51.384;0.040;2022-09-16T02:25:37;13.80;99.90
27707;DHT22;36332;51.384;0.040;2022-09-16T02:28:09;13.60;99.90
27707;DHT22;36332;51.384;0.040;2022-09-16T02:33:11;13.20;99.90
27707;DHT22;36332;51.384;0.040;2022-09-16T02:35:44;13.30;99.90
27707;DHT22;36332;51.384;0.040;2022-09-16T02:38:25;13.90;99.90
27707;DHT22;36332;51.384;0.040;2022-09-16T02:40:59;13.80;99.90
27707;DHT22;36332;51.384;0.040;2022-09-16T02:43:27;13.90;99.90
27707;DHT22;36332;51.384;0.040;2022-09-16T02:46:15;13.30;99.90
27707;DHT22;36332;51.384;0.040;2022-09-16T02:53:53;13.40;99.90
27707;DHT22;36332;51.384;0.040;2022-09-16T02:56:56;13.40;99.90
27707;DHT22;36332;51.384;0.040;2022-09-16T02:59:17;13.30;99.90
27707;DHT22;36332;51.384;0.040;2022-09-16T03:01:45;13.30;99.90
27707;DHT22;36332;51.384;0.040;2022-09-16T03:04:15;13.40;99.90
27707;DHT22;36332;51.384;0.040;2022-09-16T03:06:44;13.10;99.90
27707;DHT22;36332;51.384;0.040;2022-09-16T03:09:13;13.50;99.90
27707;DHT22;36332;51.384;0.040;2022-09-16T03:17:45;13.10;99.90
27707;DHT22;36332;51.384;0.040;2022-09-16T03:20:54;13.10;99.90
27707;DHT22;36332;51.384;0.040;2022-09-16T03:34:45;13.20;99.90
27707;DHT22;36332;51.384;0.040;2022-09-16T03:37:15;13.60;99.90
27707;DHT22;36332;51.384;0.040;2022-09-16T03:39:49;12.90;99.90
27707;DHT22;36332;51.384;0.040;2022-09-16T03:42:20;13.70;99.90
27707;DHT22;36332;51.384;0.040;2022-09-16T03:44:48;13.30;99.90
27707;DHT22;36332;51.384;0.040;2022-09-16T03:47:16;13.60;99.90
27707;DHT22;36332;51.384;0.040;2022-09-16T03:49:44;13.20;99.90
27707;DHT22;36332;51.384;0.040;2022-09-16T03:52:12;13.30;99.90
27707;DHT22;36332;51.384;0.040;2022-09-16T03:54:39;13.40;99.90
27707;DHT22;36332;51.384;0.040;2022-09-16T03:57:08;13.40;99.90
27707;DHT22;36332;51.384;0.040;2022-09-16T03:59:35;13.30;99.90
27707;DHT22;36332;51.384;0.040;2022-09-16T04:02:03;13.30;99.90
27707;DHT22;36332;51.384;0.040;2022-09-16T04:04:30;14.60;99.90
27707;DHT22;36332;51.384;0.040;2022-09-16T04:06:58;13.40;99.90
27707;DHT22;36332;51.384;0.040;2022-09-16T04:09:25;13.30;99.90
27707;DHT22;36332;51.384;0.040;2022-09-16T04:11:53;12.70;99.90
27707;DHT22;36332;51.384;0.040;2022-09-16T04:14:21;14.20;99.90
27707;DHT22;36332;51.384;0.040;2022-09-16T04:16:48;13.10;99.90
27707;DHT22;36332;51.384;0.040;2022-09-16T04:24:12;13.10;99.90
27707;DHT22;36332;51.384;0.040;2022-09-16T04:26:40;13.20;99.90
27707;DHT22;36332;51.384;0.040;2022-09-16T04:29:08;13.20;99.90
27707;DHT22;36332;51.384;0.040;2022-09-16T04:31:36;13.20;99.90
27707;DHT22;36332;51.384;0.040;2022-09-16T04:34:04;14.40;99.90
27707;DHT22;36332;51.384;0.040;2022-09-16T04:36:32;13.10;99.90
27707;DHT22;36332;51.384;0.040;2022-09-16T04:38:59;13.30;99.90
27707;DHT22;36332;51.384;0.040;2022-09-16T04:41:27;13.10;99.90
27707;DHT22;36332;51.384;0.040;2022-09-16T04:43:56;13.30;99.90
27707;DHT22;36332;51.384;0.040;2022-09-16T04:46:26;13.00;99.90
27707;DHT22;36332;51.384;0.040;2022-09-16T04:48:55;13.00;99.90
27707;DHT22;36332;51.384;0.040;2022-09-16T04:51:23;12.90;99.90
27707;DHT22;36332;51.384;0.040;2022-09-16T04:53:55;13.10;99.90
27707;DHT22;36332;51.384;0.040;2022-09-16T04:56:25;13.00;99.90
27707;DHT22;36332;51.384;0.040;2022-09-16T04:58:54;12.90;99.90
27707;DHT22;36332;51.384;0.040;2022-09-16T05:01:28;13.00;99.90
27707;DHT22;36332;51.384;0.040;2022-09-16T05:03:58;12.70;99.90
27707;DHT22;36332;51.384;0.040;2022-09-16T05:06:30;13.20;99.90
27707;DHT22;36332;51.384;0.040;2022-09-16T05:08:58;12.80;99.90
27707;DHT22;36332;51.384;0.040;2022-09-16T05:11:33;12.80;99.90
27707;DHT22;36332;51.384;0.040;2022-09-16T05:14:02;12.80;99.90
27707;DHT22;36332;51.384;0.040;2022-09-16T05:16:31;12.80;99.90
27707;DHT22;36332;51.384;0.040;2022-09-16T05:19:02;13.10;99.90
27707;DHT22;36332;51.384;0.040;2022-09-16T05:21:34;12.70;99.90
27707;DHT22;36332;51.384;0.040;2022-09-16T05:24:03;12.70;99.90
27707;DHT22;36332;51.384;0.040;2022-09-16T05:26:32;12.80;99.90
27707;DHT22;36332;51.384;0.040;2022-09-16T05:29:04;13.10;99.90
27707;DHT22;36332;51.384;0.040;2022-09-16T05:31:34;12.70;99.90
27707;DHT22;36332;51.384;0.040;2022-09-16T05:34:14;13.50;99.90
27707;DHT22;36332;51.384;0.040;2022-09-16T05:36:42;12.80;99.90
27707;DHT22;36332;51.384;0.040;2022-09-16T05:39:10;13.90;99.90
27707;DHT22;36332;51.384;0.040;2022-09-16T05:41:53;12.70;99.90
27707;DHT22;36332;51.384;0.040;2022-09-16T05:44:22;13.20;99.90
27707;DHT22;36332;51.384;0.040;2022-09-16T05:46:50;12.70;99.90
27707;DHT22;36332;51.384;0.040;2022-09-16T05:49:18;12.70;99.90
27707;DHT22;36332;51.384;0.040;2022-09-16T05:51:48;12.70;99.90
27707;DHT22;36332;51.384;0.040;2022-09-16T05:54:16;12.60;99.90
27707;DHT22;36332;51.384;0.040;2022-09-16T05:56:45;12.60;99.90
27707;DHT22;36332;51.384;0.040;2022-09-16T05:59:15;12.80;99.90
27707;DHT22;36332;51.384;0.040;2022-09-16T06:01:43;12.60;99.90
27707;DHT22;36332;51.384;0.040;2022-09-16T06:04:12;12.90;99.90
27707;DHT22;36332;51.384;0.040;2022-09-16T06:06:42;12.60;99.90
27707;DHT22;36332;51.384;0.040;2022-09-16T06:09:22;13.00;99.90
27707;DHT22;36332;51.384;0.040;2022-09-16T06:11:52;12.70;99.90
27707;DHT22;36332;51.384;0.040;2022-09-16T06:14:27;12.80;99.90
27707;DHT22;36332;51.384;0.040;2022-09-16T06:16:55;12.70;99.90
27707;DHT22;36332;51.384;0.040;2022-09-16T06:19:23;13.10;99.90
27707;DHT22;36332;51.384;0.040;2022-09-16T06:21:50;13.00;99.90
27707;DHT22;36332;51.384;0.040;2022-09-16T06:24:19;12.80;99.90
27707;DHT22;36332;51.384;0.040;2022-09-16T06:26:47;12.80;99.90
27707;DHT22;36332;51.384;0.040;2022-09-16T06:29:16;13.50;99.90
27707;DHT22;36332;51.384;0.040;2022-09-16T06:31:44;12.90;99.90
27707;DHT22;36332;51.384;0.040;2022-09-16T06:34:14;12.80;99.90
27707;DHT22;36332;51.384;0.040;2022-09-16T06:36:42;12.90;99.90
27707;DHT22;36332;51.384;0.040;2022-09-16T06:39:14;12.90;99.90
27707;DHT22;36332;51.384;0.040;2022-09-16T06:41:42;13.00;99.90
27707;DHT22;36332;51.384;0.040;2022-09-16T06:44:10;14.30;99.90
27707;DHT22;36332;51.384;0.040;2022-09-16T06:46:37;13.10;99.90
27707;DHT22;36332;51.384;0.040;2022-09-16T06:49:05;13.30;99.90
27707;DHT22;36332;51.384;0.040;2022-09-16T06:51:33;13.00;99.90
27707;DHT22;36332;51.384;0.040;2022-09-16T06:54:04;13.80;99.90
27707;DHT22;36332;51.384;0.040;2022-09-16T06:56:32;13.20;99.90
27707;DHT22;36332;51.384;0.040;2022-09-16T06:59:02;13.20;99.90
27707;DHT22;36332;51.384;0.040;2022-09-16T07:01:30;13.20;99.90
27707;DHT22;36332;51.384;0.040;2022-09-16T07:04:02;13.20;99.90
27707;DHT22;36332;51.384;0.040;2022-09-16T07:06:32;13.20;99.90
27707;DHT22;36332;51.384;0.040;2022-09-16T07:09:20;13.10;99.90
27707;DHT22;36332;51.384;0.040;2022-09-16T07:11:48;13.10;99.90
27707;DHT22;36332;51.384;0.040;2022-09-16T07:14:16;13.10;99.90
27707;DHT22;36332;51.384;0.040;2022-09-16T07:16:43;13.00;99.90
27707;DHT22;36332;51.384;0.040;2022-09-16T07:19:11;13.20;99.90
27707;DHT22;36332;51.384;0.040;2022-09-16T07:21:39;13.20;99.90
27707;DHT22;36332;51.384;0.040;2022-09-16T07:24:08;13.10;99.90
27707;DHT22;36332;51.384;0.040;2022-09-16T07:26:39;13.10;99.90
27707;DHT22;36332;51.384;0.040;2022-09-16T07:29:11;13.50;99.90
27707;DHT22;36332;51.384;0.040;2022-09-16T07:31:40;13.20;99.90
27707;DHT22;36332;51.384;0.040;2022-09-16T07:34:10;13.80;99.90
27707;DHT22;36332;51.384;0.040;2022-09-16T07:36:44;13.50;99.90
27707;DHT22;36332;51.384;0.040;2022-09-16T07:39:13;13.70;99.90
27707;DHT22;36332;51.384;0.040;2022-09-16T07:41:42;13.80;99.90
27707;DHT22;36332;51.384;0.040;2022-09-16T07:44:13;14.10;99.90
27707;DHT22;36332;51.384;0.040;2022-09-16T07:46:41;14.50;99.90
27707;DHT22;36332;51.384;0.040;2022-09-16T07:49:12;14.60;99.90
27707;DHT22;36332;51.384;0.040;2022-09-16T07:51:40;14.90;99.90
27707;DHT22;36332;51.384;0.040;2022-09-16T07:54:11;15.50;99.90
27707;DHT22;36332;51.384;0.040;2022-09-16T07:56:40;15.30;99.90
27707;DHT22;36332;51.384;0.040;2022-09-16T07:59:12;15.60;99.90
27707;DHT22;36332;51.384;0.040;2022-09-16T08:01:47;15.80;99.90
27707;DHT22;36332;51.384;0.040;2022-09-16T08:04:17;15.90;99.90
27707;DHT22;36332;51.384;0.040;2022-09-16T08:06:45;16.40;99.90
27707;DHT22;36332;51.384;0.040;2022-09-16T08:09:13;16.10;99.90
27707;DHT22;36332;51.384;0.040;2022-09-16T08:12:03;16.20;99.90
27707;DHT22;36332;51.384;0.040;2022-09-16T08:14:31;16.30;99.90
27707;DHT22;36332;51.384;0.040;2022-09-16T08:16:59;16.20;99.90
27707;DHT22;36332;51.384;0.040;2022-09-16T08:19:28;16.40;99.90
27707;DHT22;36332;51.384;0.040;2022-09-16T08:21:55;16.40;99.90
27707;DHT22;36332;51.384;0.040;2022-09-16T08:24:23;16.30;99.90
27707;DHT22;36332;51.384;0.040;2022-09-16T08:26:51;15.10;99.90
27707;DHT22;36332;51.384;0.040;2022-09-16T08:29:19;16.30;99.90
27707;DHT22;36332;51.384;0.040;2022-09-16T08:31:48;16.60;99.90
27707;DHT22;36332;51.384;0.040;2022-09-16T08:34:17;16.20;99.90
27707;DHT22;36332;51.384;0.040;2022-09-16T08:36:44;16.30;99.90
27707;DHT22;36332;51.384;0.040;2022-09-16T08:39:12;16.60;99.90
27707;DHT22;36332;51.384;0.040;2022-09-16T08:41:57;16.20;99.90
27707;DHT22;36332;51.384;0.040;2022-09-16T08:49:47;17.10;99.90
27707;DHT22;36332;51.384;0.040;2022-09-16T08:52:35;17.30;99.90
27707;DHT22;36332;51.384;0.040;2022-09-16T08:55:28;17.40;99.90
27707;DHT22;36332;51.384;0.040;2022-09-16T08:58:21;17.60;99.90
27707;DHT22;36332;51.384;0.040;2022-09-16T09:00:55;17.90;99.90
27707;DHT22;36332;51.384;0.040;2022-09-16T09:03:36;17.80;99.90
27707;DHT22;36332;51.384;0.040;2022-09-16T09:09:07;17.80;99.90
27707;DHT22;36332;51.384;0.040;2022-09-16T09:11:49;17.70;99.90
27707;DHT22;36332;51.384;0.040;2022-09-16T09:23:01;17.60;99.90
27707;DHT22;36332;51.384;0.040;2022-09-16T09:25:41;17.70;99.90
27707;DHT22;36332;51.384;0.040;2022-09-16T09:31:01;17.80;99.90
27707;DHT22;36332;51.384;0.040;2022-09-16T09:33:40;18.50;99.90
27707;DHT22;36332;51.384;0.040;2022-09-16T09:36:35;18.20;99.90
27707;DHT22;36332;51.384;0.040;2022-09-16T09:39:22;18.00;99.90
27707;DHT22;36332;51.384;0.040;2022-09-16T09:42:47;18.00;99.90
27707;DHT22;36332;51.384;0.040;2022-09-16T09:47:47;17.80;99.90
27707;DHT22;36332;51.384;0.040;2022-09-16T09:50:29;17.60;99.90
27707;DHT22;36332;51.384;0.040;2022-09-16T09:53:07;17.50;99.90
27707;DHT22;36332;51.384;0.040;2022-09-16T09:55:40;17.60;99.90
27707;DHT22;36332;51.384;0.040;2022-09-16T09:58:29;17.70;99.90
27707;DHT22;36332;51.384;0.040;2022-09-16T10:00:58;17.50;99.90
27707;DHT22;36332;51.384;0.040;2022-09-16T10:05:57;17.60;99.90
27707;DHT22;36332;51.384;0.040;2022-09-16T10:08:50;17.10;99.90
27707;DHT22;36332;51.384;0.040;2022-09-16T10:11:23;17.90;99.90
27707;DHT22;36332;51.384;0.040;2022-09-16T10:13:56;18.00;99.90
27707;DHT22;36332;51.384;0.040;2022-09-16T10:16:28;18.10;99.90
27707;DHT22;36332;51.384;0.040;2022-09-16T10:19:06;18.00;99.90
27707;DHT22;36332;51.384;0.040;2022-09-16T10:22:06;17.90;99.90
27707;DHT22;36332;51.384;0.040;2022-09-16T10:27:19;18.10;99.90
27707;DHT22;36332;51.384;0.040;2022-09-16T10:30:01;18.30;99.90
27707;DHT22;36332;51.384;0.040;2022-09-16T10:32:29;18.50;99.90
27707;DHT22;36332;51.384;0.040;2022-09-16T10:34:58;18.50;99.90
27707;DHT22;36332;51.384;0.040;2022-09-16T10:37:25;19.10;99.90
27707;DHT22;36332;51.384;0.040;2022-09-16T10:39:56;19.40;99.90
27707;DHT22;36332;51.384;0.040;2022-09-16T10:42:27;19.60;99.90
27707;DHT22;36332;51.384;0.040;2022-09-16T10:45:08;20.00;99.90
27707;DHT22;36332;51.384;0.040;2022-09-16T10:47:40;19.50;99.90
27707;DHT22;36332;51.384;0.040;2022-09-16T10:50:19;19.60;99.90
27707;DHT22;36332;51.384;0.040;2022-09-16T10:52:47;17.70;99.90
27707;DHT22;36332;51.384;0.040;2022-09-16T10:57:46;19.90;99.90
27707;DHT22;36332;51.384;0.040;2022-09-16T11:00:21;19.80;99.90
27707;DHT22;36332;51.384;0.040;2022-09-16T11:13:59;19.90;99.90
27707;DHT22;36332;51.384;0.040;2022-09-16T11:30:19;19.50;99.90
27707;DHT22;36332;51.384;0.040;2022-09-16T11:41:05;20.30;97.30
27707;DHT22;36332;51.384;0.040;2022-09-16T11:47:07;20.10;96.80
27707;DHT22;36332;51.384;0.040;2022-09-16T11:55:19;20.60;97.60
27707;DHT22;36332;51.384;0.040;2022-09-16T11:58:16;20.80;96.40
27707;DHT22;36332;51.384;0.040;2022-09-16T12:00:46;21.00;99.90
27707;DHT22;36332;51.384;0.040;2022-09-16T12:03:29;20.60;96.50
27707;DHT22;36332;51.384;0.040;2022-09-16T12:06:09;20.30;95.70
27707;DHT22;36332;51.384;0.040;2022-09-16T12:12:07;20.50;96.60
27707;DHT22;36332;51.384;0.040;2022-09-16T12:14:30;20.80;98.50
27707;DHT22;36332;51.384;0.040;2022-09-16T12:17:05;21.80;94.10
27707;DHT22;36332;51.384;0.040;2022-09-16T12:22:25;20.20;98.90
27707;DHT22;36332;51.384;0.040;2022-09-16T12:27:51;19.90;94.40
27707;DHT22;36332;51.384;0.040;2022-09-16T12:30:22;19.50;98.60
27707;DHT22;36332;51.384;0.040;2022-09-16T12:33:11;19.70;95.10
27707;DHT22;36332;51.384;0.040;2022-09-16T12:36:05;19.30;94.70
27707;DHT22;36332;51.384;0.040;2022-09-16T12:38:34;19.30;94.60
27707;DHT22;36332;51.384;0.040;2022-09-16T12:59:02;21.20;91.20
27707;DHT22;36332;51.384;0.040;2022-09-16T13:01:43;20.80;90.10
27707;DHT22;36332;51.384;0.040;2022-09-16T13:04:25;20.40;90.90
27707;DHT22;36332;51.384;0.040;2022-09-16T13:06:56;20.10;91.20
27707;DHT22;36332;51.384;0.040;2022-09-16T13:09:31;20.20;91.10
27707;DHT22;36332;51.384;0.040;2022-09-16T13:12:20;20.80;94.60
27707;DHT22;36332;51.384;0.040;2022-09-16T13:15:39;20.70;89.80
27707;DHT22;36332;51.384;0.040;2022-09-16T13:18:19;20.50;87.40
27707;DHT22;36332;51.384;0.040;2022-09-16T13:21:04;20.20;90.10
27707;DHT22;36332;51.384;0.040;2022-09-16T13:23:39;20.00;90.50
27707;DHT22;36332;51.384;0.040;2022-09-16T13:26:10;19.90;90.20
27707;DHT22;36332;51.384;0.040;2022-09-16T13:28:42;19.70;90.60
27707;DHT22;36332;51.384;0.040;2022-09-16T13:33:41;19.50;90.60
27707;DHT22;36332;51.384;0.040;2022-09-16T13:38:54;20.90;89.50
27707;DHT22;36332;51.384;0.040;2022-09-16T13:43:56;23.00;86.60
27707;DHT22;36332;51.384;0.040;2022-09-16T13:46:36;23.70;79.30
27707;DHT22;36332;51.384;0.040;2022-09-16T13:51:39;23.40;80.80
27707;DHT22;36332;51.384;0.040;2022-09-16T13:54:57;22.90;78.20
27707;DHT22;36332;51.384;0.040;2022-09-16T14:00:24;21.70;78.90
27707;DHT22;36332;51.384;0.040;2022-09-16T14:03:24;21.70;80.90
27707;DHT22;36332;51.384;0.040;2022-09-16T14:06:41;21.90;79.00
27707;DHT22;36332;51.384;0.040;2022-09-16T14:09:33;22.20;79.00
27707;DHT22;36332;51.384;0.040;2022-09-16T14:12:34;23.80;84.60
27707;DHT22;36332;51.384;0.040;2022-09-16T14:15:06;23.70;74.70
27707;DHT22;36332;51.384;0.040;2022-09-16T14:17:44;24.40;75.80
27707;DHT22;36332;51.384;0.040;2022-09-16T14:20:21;24.90;73.60
27707;DHT22;36332;51.384;0.040;2022-09-16T14:23:00;25.60;72.20
27707;DHT22;36332;51.384;0.040;2022-09-16T14:25:35;26.20;66.40
27707;DHT22;36332;51.384;0.040;2022-09-16T14:28:19;26.30;68.20
27707;DHT22;36332;51.384;0.040;2022-09-16T14:31:17;26.40;67.10
27707;DHT22;36332;51.384;0.040;2022-09-16T14:33:55;26.00;67.20
27707;DHT22;36332;51.384;0.040;2022-09-16T14:39:02;24.90;66.80
27707;DHT22;36332;51.384;0.040;2022-09-16T14:41:51;24.10;67.30
27707;DHT22;36332;51.384;0.040;2022-09-16T14:49:51;23.10;69.40
27707;DHT22;36332;51.384;0.040;2022-09-16T14:52:24;23.20;68.20
27707;DHT22;36332;51.384;0.040;2022-09-16T14:54:55;23.60;64.50
27707;DHT22;36332;51.384;0.040;2022-09-16T14:57:26;24.10;65.50
27707;DHT22;36332;51.384;0.040;2022-09-16T14:59:56;24.90;66.30
27707;DHT22;36332;51.384;0.040;2022-09-16T15:05:34;26.60;61.60
27707;DHT22;36332;51.384;0.040;2022-09-16T15:10:45;27.90;59.10
27707;DHT22;36332;51.384;0.040;2022-09-16T15:13:23;28.00;59.00
27707;DHT22;36332;51.384;0.040;2022-09-16T15:15:59;28.00;56.60
27707;DHT22;36332;51.384;0.040;2022-09-16T15:18:35;27.30;55.90
27707;DHT22;36332;51.384;0.040;2022-09-16T15:21:22;27.20;56.20
27707;DHT22;36332;51.384;0.040;2022-09-16T15:23:56;25.60;55.80
27707;DHT22;36332;51.384;0.040;2022-09-16T15:26:29;24.30;56.90
27707;DHT22;36332;51.384;0.040;2022-09-16T15:29:00;24.60;58.90
27707;DHT22;36332;51.384;0.040;2022-09-16T15:34:04;23.50;60.20
27707;DHT22;36332;51.384;0.040;2022-09-16T15:36:58;23.30;61.80
27707;DHT22;36332;51.384;0.040;2022-09-16T15:44:35;24.30;60.80
27707;DHT22;36332;51.384;0.040;2022-09-16T15:47:04;25.50;62.80
27707;DHT22;36332;51.384;0.040;2022-09-16T15:49:34;25.30;59.60
27707;DHT22;36332;51.384;0.040;2022-09-16T15:52:09;25.50;57.90
27707;DHT22;36332;51.384;0.040;2022-09-16T15:54:52;25.80;55.90
27707;DHT22;36332;51.384;0.040;2022-09-16T16:02:55;25.90;55.30
27707;DHT22;36332;51.384;0.040;2022-09-16T16:05:26;25.20;56.30
27707;DHT22;36332;51.384;0.040;2022-09-16T16:08:01;23.80;57.10
27707;DHT22;36332;51.384;0.040;2022-09-16T16:10:36;23.70;61.70
27707;DHT22;36332;51.384;0.040;2022-09-16T16:13:04;23.60;57.70
27707;DHT22;36332;51.384;0.040;2022-09-16T16:15:34;24.30;57.60
27707;DHT22;36332;51.384;0.040;2022-09-16T16:18:05;24.60;59.40
27707;DHT22;36332;51.384;0.040;2022-09-16T16:20:35;26.30;61.00
27707;DHT22;36332;51.384;0.040;2022-09-16T16:23:04;26.10;57.10
27707;DHT22;36332;51.384;0.040;2022-09-16T16:25:32;26.60;57.50
27707;DHT22;36332;51.384;0.040;2022-09-16T16:28:00;26.40;56.90
27707;DHT22;36332;51.384;0.040;2022-09-16T16:30:28;25.10;56.10
27707;DHT22;36332;51.384;0.040;2022-09-16T16:32:57;25.60;56.40
27707;DHT22;36332;51.384;0.040;2022-09-16T16:35:25;25.00;56.80
27707;DHT22;36332;51.384;0.040;2022-09-16T16:37:53;23.60;63.60
27707;DHT22;36332;51.384;0.040;2022-09-16T16:40:21;23.20;58.80
27707;DHT22;36332;51.384;0.040;2022-09-16T16:42:50;22.40;59.90
27707;DHT22;36332;51.384;0.040;2022-09-16T16:50:15;20.60;63.70
27707;DHT22;36332;51.384;0.040;2022-09-16T16:52:43;20.30;65.00
27707;DHT22;36332;51.384;0.040;2022-09-16T16:55:11;19.90;65.40
27707;DHT22;36332;51.384;0.040;2022-09-16T17:00:07;19.60;66.40
27707;DHT22;36332;51.384;0.040;2022-09-16T17:02:35;19.10;68.90
27707;DHT22;36332;51.384;0.040;2022-09-16T17:05:03;18.70;66.40
27707;DHT22;36332;51.384;0.040;2022-09-16T17:07:32;18.60;67.10
27707;DHT22;36332;51.384;0.040;2022-09-16T17:10:00;18.10;67.80
27707;DHT22;36332;51.384;0.040;2022-09-16T17:12:27;17.80;68.80
27707;DHT22;36332;51.384;0.040;2022-09-16T17:14:55;17.40;69.60
27707;DHT22;36332;51.384;0.040;2022-09-16T17:17:23;17.20;70.50
27707;DHT22;36332;51.384;0.040;2022-09-16T17:19:56;16.90;71.40
27707;DHT22;36332;51.384;0.040;2022-09-16T17:22:24;16.70;72.00
27707;DHT22;36332;51.384;0.040;2022-09-16T17:27:19;16.40;73.20
27707;DHT22;36332;51.384;0.040;2022-09-16T17:29:48;16.20;73.60
27707;DHT22;36332;51.384;0.040;2022-09-16T17:32:15;16.20;73.80
27707;DHT22;36332;51.384;0.040;2022-09-16T17:34:43;16.10;74.40
27707;DHT22;36332;51.384;0.040;2022-09-16T17:37:10;16.00;74.90
27707;DHT22;36332;51.384;0.040;2022-09-16T17:39:40;15.90;75.70
27707;DHT22;36332;51.384;0.040;2022-09-16T17:42:07;15.80;76.00
27707;DHT22;36332;51.384;0.040;2022-09-16T17:44:35;15.70;76.50
27707;DHT22;36332;51.384;0.040;2022-09-16T17:47:03;15.70;77.20
27707;DHT22;36332;51.384;0.040;2022-09-16T17:49:30;15.60;76.90
27707;DHT22;36332;51.384;0.040;2022-09-16T17:51:59;15.80;80.50
27707;DHT22;36332;51.384;0.040;2022-09-16T17:54:27;15.50;77.30
27707;DHT22;36332;51.384;0.040;2022-09-16T17:56:55;15.50;77.70
27707;DHT22;36332;51.384;0.040;2022-09-16T17:59:22;15.50;77.90
27707;DHT22;36332;51.384;0.040;2022-09-16T18:01:51;15.40;78.10
27707;DHT22;36332;51.384;0.040;2022-09-16T18:04:18;15.40;80.10
27707;DHT22;36332;51.384;0.040;2022-09-16T18:06:46;14.70;79.50
27707;DHT22;36332;51.384;0.040;2022-09-16T18:09:14;15.10;77.70
27707;DHT22;36332;51.384;0.040;2022-09-16T18:11:46;15.00;78.00
27707;DHT22;36332;51.384;0.040;2022-09-16T18:16:46;14.90;77.90
27707;DHT22;36332;51.384;0.040;2022-09-16T18:19:14;14.90;78.70
27707;DHT22;36332;51.384;0.040;2022-09-16T18:21:41;14.80;78.80
27707;DHT22;36332;51.384;0.040;2022-09-16T18:24:11;14.80;79.00
27707;DHT22;36332;51.384;0.040;2022-09-16T18:26:39;14.70;79.10
27707;DHT22;36332;51.384;0.040;2022-09-16T18:29:10;14.60;79.00
27707;DHT22;36332;51.384;0.040;2022-09-16T18:31:41;14.60;80.00
27707;DHT22;36332;51.384;0.040;2022-09-16T18:34:11;14.50;80.10
27707;DHT22;36332;51.384;0.040;2022-09-16T18:36:39;14.50;80.40
27707;DHT22;36332;51.384;0.040;2022-09-16T18:39:10;14.40;80.60
27707;DHT22;36332;51.384;0.040;2022-09-16T18:41:40;14.40;81.90
27707;DHT22;36332;51.384;0.040;2022-09-16T18:44:16;14.30;80.80
27707;DHT22;36332;51.384;0.040;2022-09-16T18:46:46;14.30;80.60
27707;DHT22;36332;51.384;0.040;2022-09-16T18:49:15;14.30;81.00
27707;DHT22;36332;51.384;0.040;2022-09-16T18:51:48;14.50;83.50
27707;DHT22;36332;51.384;0.040;2022-09-16T18:54:24;14.20;81.50
27707;DHT22;36332;51.384;0.040;2022-09-16T18:56:55;14.10;81.60
27707;DHT22;36332;51.384;0.040;2022-09-16T18:59:27;14.10;82.20
27707;DHT22;36332;51.384;0.040;2022-09-16T19:01:57;14.00;82.30
27707;DHT22;36332;51.384;0.040;2022-09-16T19:04:28;14.00;82.50
27707;DHT22;36332;51.384;0.040;2022-09-16T19:06:57;13.90;82.60
27707;DHT22;36332;51.384;0.040;2022-09-16T19:09:34;13.90;82.90
27707;DHT22;36332;51.384;0.040;2022-09-16T19:12:08;13.80;83.80
27707;DHT22;36332;51.384;0.040;2022-09-16T19:14:37;13.80;83.60
27707;DHT22;36332;51.384;0.040;2022-09-16T19:17:05;13.80;84.10
27707;DHT22;36332;51.384;0.040;2022-09-16T19:19:33;13.70;84.00
27707;DHT22;36332;51.384;0.040;2022-09-16T19:22:01;13.70;84.10
27707;DHT22;36332;51.384;0.040;2022-09-16T19:24:32;13.60;84.70
27707;DHT22;36332;51.384;0.040;2022-09-16T19:27:00;13.60;85.00
27707;DHT22;36332;51.384;0.040;2022-09-16T19:29:27;13.50;85.10
27707;DHT22;36332;51.384;0.040;2022-09-16T19:31:59;13.40;87.60
27707;DHT22;36332;51.384;0.040;2022-09-16T19:34:27;13.40;85.70